Time;durP1;ratioP1;P1;durP2;ratioP2;P2;SDS_P1;SDS_P2;PMS_P1;PMS_P2;Temp;Humidity;BMP_temperature;BMP_pressure;BME280_temperature;BME280_humidity;BME280_pressure;Samples;Min_cycle;Max_cycle;Signal;HPM_P1;HPM_P2
2021/04/15 00:00:49;;;;;;;4.30;1.00;;;6.30;84.80;;;;;;4994837;28;20034;-86
2021/04/15 00:03:21;;;;;;;3.05;1.40;;;6.30;84.70;;;;;;4993708;28;20053;-87
2021/04/15 00:05:48;;;;;;;2.60;1.00;;;6.30;85.00;;;;;;4994648;28;20475;-85
2021/04/15 00:08:16;;;;;;;3.13;0.98;;;6.30;85.00;;;;;;4994428;28;20022;-87
2021/04/15 00:10:45;;;;;;;2.72;0.98;;;6.30;85.10;;;;;;4994222;28;20061;-84
2021/04/15 00:13:28;;;;;;;4.45;1.30;;;6.20;85.30;;;;;;4993259;28;20033;-85
2021/04/15 00:15:54;;;;;;;4.57;1.10;;;6.20;85.10;;;;;;4988005;28;20038;-84
2021/04/15 00:18:20;;;;;;;3.03;1.20;;;6.20;85.30;;;;;;4979510;28;20031;-85
2021/04/15 00:20:45;;;;;;;3.28;0.85;;;6.20;85.50;;;;;;4994149;28;20026;-85
2021/04/15 00:23:12;;;;;;;3.35;0.98;;;6.20;85.90;;;;;;4961164;28;20089;-85
2021/04/15 00:25:37;;;;;;;3.92;1.15;;;6.20;86.00;;;;;;4994736;28;20121;-84
2021/04/15 00:28:03;;;;;;;4.13;1.00;;;6.20;86.10;;;;;;4976591;28;20153;-85
2021/04/15 00:30:29;;;;;;;4.60;1.10;;;6.20;86.20;;;;;;4994457;28;20022;-84
2021/04/15 00:32:55;;;;;;;4.43;1.40;;;6.20;86.10;;;;;;4976507;28;20034;-86
2021/04/15 00:35:21;;;;;;;4.95;1.17;;;6.20;86.10;;;;;;4993424;28;20034;-86
2021/04/15 00:37:48;;;;;;;4.25;1.42;;;6.20;86.30;;;;;;4992966;28;20503;-86
2021/04/15 00:40:17;;;;;;;2.92;1.00;;;6.20;86.40;;;;;;4994077;28;20026;-86
2021/04/15 00:42:42;;;;;;;4.15;1.20;;;6.20;86.60;;;;;;4977072;28;20479;-85
2021/04/15 00:45:15;;;;;;;3.72;0.80;;;6.20;86.80;;;;;;4976862;28;20034;-86
2021/04/15 00:47:44;;;;;;;2.40;0.80;;;6.20;86.70;;;;;;4994202;28;20032;-85
2021/04/15 00:50:26;;;;;;;3.75;1.30;;;6.20;87.20;;;;;;4992848;28;20022;-86
2021/04/15 00:52:57;;;;;;;1.27;0.95;;;6.20;87.70;;;;;;4984126;28;20019;-87
2021/04/15 00:55:27;;;;;;;1.92;0.90;;;6.10;88.30;;;;;;4989739;28;20038;-86
2021/04/15 00:57:54;;;;;;;4.28;0.90;;;6.20;88.80;;;;;;4993200;28;20037;-86
2021/04/15 01:00:25;;;;;;;1.27;0.65;;;6.10;89.30;;;;;;4992968;28;20054;-86
2021/04/15 01:02:52;;;;;;;2.47;0.57;;;6.10;89.60;;;;;;4993035;28;20026;-86
2021/04/15 01:05:38;;;;;;;0.77;0.47;;;6.10;89.90;;;;;;4993814;28;20034;-87
2021/04/15 01:08:04;;;;;;;7.22;0.93;;;6.10;90.30;;;;;;4985048;28;20050;-88
2021/04/15 01:10:34;;;;;;;3.97;0.70;;;6.10;90.40;;;;;;4959365;28;20039;-87
2021/04/15 01:13:16;;;;;;;2.15;0.65;;;6.10;90.60;;;;;;5005735;28;20023;-88
2021/04/15 01:15:48;;;;;;;1.67;0.50;;;6.00;90.70;;;;;;4993438;28;20158;-87
2021/04/15 01:18:36;;;;;;;3.33;0.77;;;6.00;90.90;;;;;;5009842;28;20026;-89
2021/04/15 01:21:32;;;;;;;1.10;0.50;;;6.00;91.00;;;;;;4993850;28;20026;-89
2021/04/15 01:24:24;;;;;;;2.42;0.60;;;6.00;91.20;;;;;;4980741;28;20046;-88
2021/04/15 01:27:29;;;;;;;2.63;0.70;;;6.00;91.30;;;;;;4982012;28;20037;-88
2021/04/15 01:30:07;;;;;;;1.40;0.45;;;6.00;91.40;;;;;;4976371;28;20034;-88
2021/04/15 01:32:48;;;;;;;3.20;0.52;;;5.90;91.50;;;;;;4992383;28;20026;-88
2021/04/15 01:35:22;;;;;;;3.03;0.57;;;6.00;91.60;;;;;;4978471;28;20037;-86
2021/04/15 01:37:54;;;;;;;0.30;0.30;;;5.90;91.70;;;;;;4993842;28;20057;-89
2021/04/15 01:40:26;;;;;;;1.55;0.60;;;5.90;91.70;;;;;;4993719;28;20018;-89
2021/04/15 01:42:56;;;;;;;1.58;0.60;;;5.90;91.80;;;;;;4994284;28;20039;-89
2021/04/15 01:45:22;;;;;;;0.68;0.38;;;5.90;91.80;;;;;;4993041;28;20026;-88
2021/04/15 01:48:11;;;;;;;0.90;0.55;;;5.90;91.80;;;;;;4960991;28;20058;-89
2021/04/15 01:50:42;;;;;;;1.52;0.63;;;5.90;91.80;;;;;;4993569;28;20018;-89
2021/04/15 01:53:13;;;;;;;0.77;0.32;;;5.90;91.90;;;;;;4995283;28;20023;-89
2021/04/15 01:55:47;;;;;;;0.95;0.40;;;5.90;92.00;;;;;;4988272;28;20069;-89
2021/04/15 01:58:30;;;;;;;1.85;0.60;;;5.80;92.00;;;;;;4987605;28;20191;-88
2021/04/15 02:01:06;;;;;;;0.50;0.40;;;5.80;92.10;;;;;;4981995;28;20065;-89
2021/04/15 02:03:35;;;;;;;0.75;0.45;;;5.80;92.00;;;;;;4993767;28;20034;-89
2021/04/15 02:06:21;;;;;;;1.15;0.20;;;5.80;92.10;;;;;;4994191;28;20483;-90
2021/04/15 02:08:50;;;;;;;2.05;0.43;;;5.80;92.20;;;;;;4993078;28;20022;-89
2021/04/15 02:11:31;;;;;;;1.33;0.35;;;5.70;92.20;;;;;;5006488;28;20061;-89
2021/04/15 02:14:00;;;;;;;2.17;0.60;;;5.70;92.30;;;;;;4980490;28;20073;-88
2021/04/15 02:16:28;;;;;;;1.27;0.47;;;5.70;92.40;;;;;;4980371;28;20034;-89
2021/04/15 02:19:06;;;;;;;0.73;0.50;;;5.70;92.40;;;;;;4997321;28;20023;-88
2021/04/15 02:21:58;;;;;;;2.78;0.60;;;5.70;92.50;;;;;;4990786;28;20033;-89
2021/04/15 02:24:26;;;;;;;1.25;0.57;;;5.70;92.40;;;;;;5001855;28;20042;-90
2021/04/15 02:27:00;;;;;;;0.93;0.45;;;5.70;92.60;;;;;;5005755;28;20096;-89
2021/04/15 02:29:27;;;;;;;1.02;0.70;;;5.70;92.50;;;;;;5015132;28;20022;-89
2021/04/15 02:32:10;;;;;;;1.25;0.40;;;5.70;92.60;;;;;;4980657;28;20553;-89
2021/04/15 02:34:50;;;;;;;0.88;0.50;;;5.70;92.70;;;;;;5009954;28;20018;-88
2021/04/15 02:37:23;;;;;;;1.23;0.50;;;5.70;92.60;;;;;;4987064;28;20029;-89
2021/04/15 02:39:54;;;;;;;1.08;0.50;;;5.70;92.70;;;;;;4997038;28;20019;-89
2021/04/15 02:42:27;;;;;;;2.15;0.93;;;5.60;92.80;;;;;;4998322;28;20033;-90
2021/04/15 02:45:05;;;;;;;1.85;0.47;;;5.60;92.80;;;;;;4997207;28;20068;-89
2021/04/15 02:47:46;;;;;;;0.50;0.45;;;5.60;92.90;;;;;;4997091;28;20030;-89
2021/04/15 02:50:15;;;;;;;1.67;0.70;;;5.60;92.90;;;;;;4997064;28;20121;-88
2021/04/15 02:52:45;;;;;;;1.48;0.50;;;5.60;93.00;;;;;;4997345;28;20514;-87
2021/04/15 02:55:14;;;;;;;1.08;0.68;;;5.60;93.10;;;;;;4994052;28;20034;-89
2021/04/15 02:57:54;;;;;;;0.95;0.50;;;5.60;93.10;;;;;;4976701;28;20018;-89
2021/04/15 03:00:25;;;;;;;1.60;0.70;;;5.60;93.10;;;;;;5005393;28;20494;-88
2021/04/15 03:03:10;;;;;;;3.27;0.53;;;5.60;93.10;;;;;;4994141;28;20033;-89
2021/04/15 03:06:01;;;;;;;1.30;0.50;;;5.60;93.10;;;;;;4999880;28;20021;-89
2021/04/15 03:08:28;;;;;;;3.00;0.70;;;5.60;93.10;;;;;;5001863;28;20368;-87
2021/04/15 03:11:01;;;;;;;1.77;0.65;;;5.50;93.10;;;;;;4995542;28;20027;-89
2021/04/15 03:13:35;;;;;;;1.95;0.73;;;5.60;93.10;;;;;;4995428;28;20084;-89
2021/04/15 03:16:04;;;;;;;0.90;0.60;;;5.60;93.10;;;;;;4996115;28;20037;-88
2021/04/15 03:18:53;;;;;;;2.78;0.60;;;5.50;93.00;;;;;;5007840;28;20034;-87
2021/04/15 03:21:50;;;;;;;1.00;0.60;;;5.50;93.10;;;;;;4984180;28;20018;-89
2021/04/15 03:24:31;;;;;;;0.38;0.32;;;5.50;93.20;;;;;;5010057;28;20054;-89
2021/04/15 03:27:05;;;;;;;1.67;0.68;;;5.50;93.10;;;;;;4995827;28;20084;-88
2021/04/15 03:29:42;;;;;;;2.42;0.60;;;5.50;93.20;;;;;;4999015;28;20022;-88
2021/04/15 03:32:42;;;;;;;1.92;0.50;;;5.50;93.20;;;;;;5005669;28;20018;-88
2021/04/15 03:35:23;;;;;;;1.20;0.60;;;5.40;93.10;;;;;;5006386;28;20470;-88
2021/04/15 03:38:15;;;;;;;1.50;0.63;;;5.40;93.20;;;;;;5001084;28;20026;-89
2021/04/15 03:40:47;;;;;;;2.63;0.68;;;5.40;93.20;;;;;;5015618;28;20034;-88
2021/04/15 03:43:21;;;;;;;1.48;0.70;;;5.40;93.40;;;;;;5000587;28;20022;-87
2021/04/15 03:46:13;;;;;;;2.70;0.93;;;5.40;93.40;;;;;;5015102;28;20018;-89
2021/04/15 03:48:51;;;;;;;1.42;0.75;;;5.40;93.60;;;;;;5016291;28;20060;-89
2021/04/15 03:51:22;;;;;;;0.70;0.60;;;5.30;93.20;;;;;;5000688;28;20479;-90
2021/04/15 03:53:52;;;;;;;1.85;0.85;;;5.30;93.20;;;;;;4987293;28;20026;-91
2021/04/15 03:56:34;;;;;;;2.50;0.73;;;5.20;93.20;;;;;;4992272;28;20066;-91
2021/04/15 03:59:12;;;;;;;1.38;0.95;;;5.20;93.20;;;;;;4996238;28;20357;-89
2021/04/15 04:01:43;;;;;;;2.22;0.88;;;5.20;93.10;;;;;;4991803;28;20027;-89
2021/04/15 04:04:29;;;;;;;;;;;5.10;93.00;;;;;;4984567;28;20032;-88
2021/04/15 04:06:59;;;;;;;2.88;0.82;;;5.10;93.10;;;;;;4999375;28;19928;-87
2021/04/15 04:09:40;;;;;;;1.13;0.63;;;5.10;93.10;;;;;;5002682;28;20435;-89
2021/04/15 04:12:09;;;;;;;1.27;1.00;;;5.00;93.10;;;;;;4995520;28;20109;-88
2021/04/15 04:14:40;;;;;;;1.98;1.00;;;5.00;93.10;;;;;;5004565;28;20028;-87
2021/04/15 04:17:13;;;;;;;5.65;1.70;;;5.00;93.20;;;;;;5003859;28;20031;-89
2021/04/15 04:19:49;;;;;;;4.03;1.10;;;5.00;93.30;;;;;;4983541;28;20077;-88
2021/04/15 04:22:30;;;;;;;1.50;1.00;;;4.90;93.20;;;;;;5007904;28;20025;-88
2021/04/15 04:25:05;;;;;;;2.35;1.13;;;4.90;93.10;;;;;;4993786;28;20051;-88
2021/04/15 04:27:56;;;;;;;2.20;1.00;;;4.90;93.00;;;;;;4997241;28;20105;-87
2021/04/15 04:30:23;;;;;;;1.45;1.10;;;4.80;93.00;;;;;;5004835;28;20196;-88
2021/04/15 04:32:58;;;;;;;2.53;0.98;;;4.80;93.00;;;;;;4995885;28;20030;-87
2021/04/15 04:35:28;;;;;;;3.80;1.38;;;4.70;93.10;;;;;;4991008;28;20027;-87
2021/04/15 04:37:57;;;;;;;5.75;1.30;;;4.70;93.20;;;;;;5002844;28;20029;-88
2021/04/15 04:40:37;;;;;;;3.60;1.15;;;4.70;93.30;;;;;;4986378;28;20037;-88
2021/04/15 04:43:16;;;;;;;2.05;1.10;;;4.70;93.30;;;;;;5003533;28;20044;-89
2021/04/15 04:45:42;;;;;;;2.10;1.10;;;4.70;93.40;;;;;;4992555;28;20028;-89
2021/04/15 04:48:29;;;;;;;2.75;1.02;;;4.70;93.50;;;;;;4978301;28;20030;-90
2021/04/15 04:51:03;;;;;;;2.67;1.10;;;4.70;93.60;;;;;;4995569;28;20113;-90
2021/04/15 04:53:38;;;;;;;2.55;1.20;;;4.70;93.60;;;;;;4996232;28;20018;-89
2021/04/15 04:56:26;;;;;;;2.20;1.10;;;4.70;93.70;;;;;;4995166;28;20034;-88
2021/04/15 04:59:21;;;;;;;2.55;1.20;;;4.70;93.70;;;;;;4993779;28;20041;-88
2021/04/15 05:01:47;;;;;;;2.53;1.40;;;4.80;93.90;;;;;;4982936;28;20038;-88
2021/04/15 05:04:13;;;;;;;1.83;1.10;;;4.80;93.90;;;;;;4979872;28;20061;-86
2021/04/15 05:06:41;;;;;;;4.93;1.85;;;4.80;93.90;;;;;;4973714;28;20035;-87
2021/04/15 05:09:30;;;;;;;1.50;1.20;;;4.80;94.00;;;;;;4991437;28;20125;-88
2021/04/15 05:11:56;;;;;;;3.20;1.20;;;4.80;94.10;;;;;;4994910;28;20440;-89
2021/04/15 05:14:25;;;;;;;2.17;1.52;;;4.80;94.10;;;;;;4964523;28;20041;-88
2021/04/15 05:16:59;;;;;;;3.40;1.42;;;4.80;94.00;;;;;;4993956;28;20554;-87
2021/04/15 05:19:27;;;;;;;3.42;2.05;;;4.90;94.10;;;;;;5002694;28;20054;-86
2021/04/15 05:21:52;;;;;;;2.95;1.67;;;4.80;94.10;;;;;;4995096;28;20084;-87
2021/04/15 05:24:45;;;;;;;2.80;1.77;;;4.90;94.20;;;;;;4974888;28;20446;-87
2021/04/15 05:27:12;;;;;;;3.78;1.50;;;4.90;94.20;;;;;;4992358;28;20037;-87
2021/04/15 05:29:43;;;;;;;3.63;1.60;;;4.90;94.30;;;;;;4993930;28;20033;-88
2021/04/15 05:32:14;;;;;;;2.45;1.48;;;4.90;94.30;;;;;;4992824;28;20027;-86
2021/04/15 05:34:46;;;;;;;3.78;1.60;;;4.90;94.30;;;;;;4991541;28;20015;-88
2021/04/15 05:37:21;;;;;;;3.75;1.60;;;4.90;94.20;;;;;;4992906;28;20106;-89
2021/04/15 05:39:48;;;;;;;1.92;1.30;;;4.90;94.10;;;;;;4992886;28;20026;-89
2021/04/15 05:42:32;;;;;;;3.22;1.50;;;4.90;94.20;;;;;;4960736;28;20053;-87
2021/04/15 05:45:06;;;;;;;3.42;1.40;;;4.90;94.20;;;;;;4994048;28;20154;-89
2021/04/15 05:47:39;;;;;;;1.88;1.50;;;4.90;94.20;;;;;;4994225;28;20022;-88
2021/04/15 05:50:11;;;;;;;2.30;1.50;;;4.90;94.20;;;;;;4993866;28;20451;-87
2021/04/15 05:52:46;;;;;;;3.85;1.90;;;4.80;94.20;;;;;;5014530;23;20038;-89
2021/04/15 05:55:18;;;;;;;2.60;1.67;;;4.80;94.20;;;;;;4984285;28;20069;-89
2021/04/15 05:57:49;;;;;;;4.20;2.35;;;4.80;94.10;;;;;;5017364;28;20097;-89
2021/04/15 06:00:30;;;;;;;4.43;1.80;;;4.80;94.20;;;;;;4986204;28;20025;-89
2021/04/15 06:03:14;;;;;;;2.28;1.50;;;4.70;94.10;;;;;;4999783;28;20096;-89
2021/04/15 06:05:49;;;;;;;3.80;1.83;;;4.70;94.20;;;;;;4993094;28;20029;-89
2021/04/15 06:08:16;;;;;;;3.38;1.73;;;4.70;94.30;;;;;;5004798;28;20033;-87
2021/04/15 06:10:42;;;;;;;3.13;1.80;;;4.80;94.40;;;;;;4969257;28;20080;-88
2021/04/15 06:13:23;;;;;;;3.50;2.13;;;4.80;94.50;;;;;;4975898;28;20040;-88
2021/04/15 06:15:52;;;;;;;4.28;2.40;;;4.90;94.50;;;;;;4994186;28;20117;-88
2021/04/15 06:18:36;;;;;;;3.78;2.35;;;4.90;94.50;;;;;;4982617;28;20074;-88
2021/04/15 06:21:09;;;;;;;4.30;2.05;;;4.90;94.50;;;;;;5010191;28;20019;-88
2021/04/15 06:24:06;;;;;;;3.50;2.00;;;5.00;94.50;;;;;;4979072;28;20022;-88
2021/04/15 06:26:48;;;;;;;3.67;2.30;;;5.00;94.50;;;;;;4981619;28;20428;-89
2021/04/15 06:29:32;;;;;;;5.10;2.10;;;5.10;94.40;;;;;;4990746;28;20033;-89
2021/04/15 06:32:03;;;;;;;4.15;2.22;;;5.10;94.40;;;;;;4984811;28;20037;-88
2021/04/15 06:34:29;;;;;;;3.72;1.83;;;5.20;94.40;;;;;;4990045;28;20116;-87
2021/04/15 06:37:21;;;;;;;3.72;1.95;;;5.20;94.40;;;;;;4976434;28;20029;-87
2021/04/15 06:40:09;;;;;;;5.32;2.35;;;5.30;94.40;;;;;;4997442;28;20062;-88
2021/04/15 06:43:16;;;;;;;3.05;2.00;;;5.30;94.40;;;;;;4998424;28;20018;-89
2021/04/15 06:46:11;;;;;;;5.68;2.40;;;5.40;94.40;;;;;;4949180;28;20046;-88
2021/04/15 06:48:59;;;;;;;3.85;2.20;;;5.50;94.80;;;;;;4986171;28;20053;-87
2021/04/15 06:51:37;;;;;;;6.35;2.65;;;5.60;94.70;;;;;;4985357;28;20052;-88
2021/04/15 06:54:18;;;;;;;4.43;2.17;;;5.70;94.90;;;;;;4997181;28;20058;-89
2021/04/15 06:57:05;;;;;;;3.88;2.20;;;5.70;94.80;;;;;;4987704;28;20034;-89
2021/04/15 06:59:57;;;;;;;3.80;2.00;;;5.80;94.70;;;;;;4994901;28;20088;-88
2021/04/15 07:02:54;;;;;;;4.30;2.30;;;5.90;94.70;;;;;;4970631;28;20125;-90
2021/04/15 07:05:25;;;;;;;5.43;2.65;;;6.00;94.90;;;;;;4986428;28;20037;-89
2021/04/15 07:08:12;;;;;;;6.63;2.47;;;6.00;95.20;;;;;;4997907;28;20026;-90
2021/04/15 07:11:13;;;;;;;5.25;2.40;;;6.10;95.10;;;;;;4995937;28;20025;-89
2021/04/15 07:13:52;;;;;;;4.15;2.25;;;6.20;95.30;;;;;;4972513;28;20427;-86
2021/04/15 07:16:53;;;;;;;5.30;2.20;;;6.30;95.30;;;;;;5005680;28;20026;-88
2021/04/15 07:19:40;;;;;;;7.63;2.53;;;6.30;95.30;;;;;;5001568;28;20742;-87
2021/04/15 07:22:37;;;;;;;4.88;2.13;;;6.40;95.30;;;;;;4983778;28;20049;-86
2021/04/15 07:25:41;;;;;;;7.07;2.22;;;6.60;95.20;;;;;;4994717;28;20027;-87
2021/04/15 07:28:24;;;;;;;4.30;2.40;;;6.60;95.20;;;;;;4978942;28;20468;-87
2021/04/15 07:31:46;;;;;;;4.75;2.45;;;6.70;95.00;;;;;;4995661;28;20022;-86
2021/04/15 07:34:30;;;;;;;6.15;2.75;;;6.90;95.10;;;;;;4911214;29;20100;-88
2021/04/15 07:37:08;;;;;;;7.20;2.40;;;7.00;95.10;;;;;;4900898;29;20036;-87
2021/04/15 07:39:42;;;;;;;4.70;2.30;;;7.00;94.80;;;;;;4970275;28;20141;-88
2021/04/15 07:42:08;;;;;;;4.68;2.13;;;7.10;94.80;;;;;;5001034;28;20050;-87
2021/04/15 07:44:41;;;;;;;2.70;1.70;;;7.20;94.70;;;;;;4995597;28;20057;-86
2021/04/15 07:47:32;;;;;;;4.82;2.47;;;7.20;94.50;;;;;;4997510;28;20054;-86
2021/04/15 07:50:29;;;;;;;4.05;1.80;;;7.30;94.40;;;;;;5006751;28;20030;-87
2021/04/15 07:53:23;;;;;;;3.00;1.98;;;7.40;94.40;;;;;;4991751;28;20072;-87
2021/04/15 07:56:07;;;;;;;2.95;1.70;;;7.50;94.40;;;;;;4994513;28;20053;-87
2021/04/15 07:59:02;;;;;;;1.83;1.30;;;7.50;93.70;;;;;;4996640;28;20035;-87
2021/04/15 08:02:08;;;;;;;3.67;1.80;;;7.50;93.60;;;;;;4986266;28;20014;-87
2021/04/15 08:04:39;;;;;;;4.18;1.95;;;7.60;93.60;;;;;;5011679;28;20019;-86
2021/04/15 08:07:23;;;;;;;;;;;7.70;93.90;;;;;;4995820;28;20361;-87
2021/04/15 08:10:07;;;;;;;3.75;1.80;;;7.70;93.60;;;;;;4982786;28;19905;-88
2021/04/15 08:13:03;;;;;;;3.92;1.45;;;7.80;93.60;;;;;;4997181;28;20038;-86
2021/04/15 08:15:47;;;;;;;3.90;1.70;;;7.90;93.40;;;;;;4997191;28;20033;-86
2021/04/15 08:18:28;;;;;;;3.72;1.75;;;7.90;93.10;;;;;;4989563;28;20033;-86
2021/04/15 08:21:04;;;;;;;3.72;1.77;;;8.00;93.00;;;;;;4984547;28;20115;-86
2021/04/15 08:23:55;;;;;;;4.68;1.83;;;8.10;92.90;;;;;;4994106;28;20112;-88
2021/04/15 08:26:33;;;;;;;4.10;1.97;;;8.20;92.70;;;;;;5005867;28;20068;-88
2021/04/15 08:29:26;;;;;;;4.95;1.80;;;8.20;92.60;;;;;;4989683;28;20022;-87
2021/04/15 08:32:19;;;;;;;5.07;2.00;;;8.30;91.70;;;;;;4997264;28;20025;-86
2021/04/15 08:35:06;;;;;;;8.13;3.17;;;8.30;91.60;;;;;;4982995;28;20484;-86
2021/04/15 08:37:51;;;;;;;6.82;1.98;;;8.30;91.50;;;;;;5008694;28;20026;-87
2021/04/15 08:40:48;;;;;;;4.25;2.10;;;8.30;90.70;;;;;;4982271;28;20085;-87
2021/04/15 08:43:33;;;;;;;2.65;1.80;;;8.20;90.70;;;;;;4992196;28;20022;-86
2021/04/15 08:46:24;;;;;;;3.85;1.60;;;8.30;90.90;;;;;;5006835;28;20045;-86
2021/04/15 08:49:07;;;;;;;6.65;1.80;;;8.30;91.00;;;;;;4986076;28;20041;-87
2021/04/15 08:51:49;;;;;;;4.40;1.70;;;8.30;90.70;;;;;;5011723;28;20036;-88
2021/04/15 08:54:50;;;;;;;3.25;1.40;;;8.40;90.80;;;;;;4965802;28;20050;-88
2021/04/15 08:57:31;;;;;;;2.90;1.33;;;8.40;90.70;;;;;;4972849;28;20444;-88
2021/04/15 09:00:05;;;;;;;4.65;1.40;;;8.50;90.80;;;;;;4962435;28;20075;-86
2021/04/15 09:02:36;;;;;;;4.57;1.55;;;8.50;90.90;;;;;;4957417;28;20018;-86
2021/04/15 09:05:17;;;;;;;4.15;1.48;;;8.50;90.80;;;;;;4974234;28;20023;-87
2021/04/15 09:07:56;;;;;;;;;;;8.60;90.60;;;;;;4973468;28;20022;-86
2021/04/15 09:10:43;;;;;;;4.32;1.60;;;8.70;90.20;;;;;;4974131;28;19906;-86
2021/04/15 09:13:38;;;;;;;4.28;1.50;;;8.70;90.20;;;;;;4962206;28;20031;-86
2021/04/15 09:16:20;;;;;;;2.83;1.15;;;8.70;90.10;;;;;;4955500;28;20027;-86
2021/04/15 09:19:15;;;;;;;1.40;1.10;;;8.80;90.00;;;;;;4965241;28;20495;-87
2021/04/15 09:22:07;;;;;;;1.40;0.98;;;8.90;90.10;;;;;;4972468;28;20019;-86
2021/04/15 09:24:43;;;;;;;3.65;1.00;;;8.90;89.90;;;;;;4926475;29;20146;-86
2021/04/15 09:27:27;;;;;;;3.03;1.38;;;9.00;89.30;;;;;;4960114;28;20053;-86
2021/04/15 09:30:15;;;;;;;2.75;1.10;;;9.00;87.80;;;;;;4973270;28;20053;-85
2021/04/15 09:32:52;;;;;;;2.55;1.20;;;9.20;88.30;;;;;;4963519;28;20015;-86
2021/04/15 09:35:48;;;;;;;5.53;1.60;;;9.20;87.70;;;;;;4953006;28;20042;-86
2021/04/15 09:38:43;;;;;;;2.42;1.05;;;9.40;88.30;;;;;;4963288;28;20041;-86
2021/04/15 09:41:43;;;;;;;3.00;1.20;;;9.50;88.40;;;;;;4960236;28;20041;-86
2021/04/15 09:44:35;;;;;;;2.40;1.00;;;9.70;88.40;;;;;;4969399;28;20098;-86
2021/04/15 09:47:25;;;;;;;1.77;0.98;;;9.90;87.50;;;;;;4967325;28;20275;-86
2021/04/15 09:50:09;;;;;;;1.70;1.30;;;10.10;86.50;;;;;;4969698;28;20552;-86
2021/04/15 09:53:01;;;;;;;2.60;1.17;;;10.20;85.00;;;;;;4965791;28;20031;-86
2021/04/15 09:55:49;;;;;;;1.15;1.00;;;10.30;85.00;;;;;;4960615;28;20490;-86
2021/04/15 09:58:57;;;;;;;1.77;1.10;;;10.30;84.10;;;;;;4953376;28;20055;-86
2021/04/15 10:01:30;;;;;;;1.88;1.25;;;10.50;83.60;;;;;;4962407;28;20051;-86
2021/04/15 10:04:02;;;;;;;2.63;1.15;;;10.50;83.50;;;;;;4968084;28;20022;-86
2021/04/15 10:06:35;;;;;;;2.72;1.23;;;10.60;83.20;;;;;;4963148;28;20086;-86
2021/04/15 10:09:23;;;;;;;2.28;1.40;;;10.60;83.40;;;;;;4964965;28;20369;-86
2021/04/15 10:12:12;;;;;;;1.35;0.95;;;10.70;83.70;;;;;;4954464;28;20031;-86
2021/04/15 10:14:49;;;;;;;3.40;1.30;;;10.70;83.50;;;;;;4972529;28;20050;-86
2021/04/15 10:17:38;;;;;;;4.97;1.40;;;10.80;83.30;;;;;;4962931;28;20054;-86
2021/04/15 10:20:33;;;;;;;3.97;1.30;;;10.90;82.10;;;;;;4981003;28;20019;-86
2021/04/15 10:23:17;;;;;;;6.40;1.52;;;10.90;79.80;;;;;;4969997;28;20078;-85
2021/04/15 10:25:51;;;;;;;2.03;1.30;;;11.00;80.10;;;;;;4960552;28;20034;-85
2021/04/15 10:28:29;;;;;;;2.25;1.15;;;11.00;79.30;;;;;;4962741;28;20027;-85
2021/04/15 10:31:33;;;;;;;5.85;1.55;;;11.00;79.00;;;;;;4970127;28;20038;-85
2021/04/15 10:34:24;;;;;;;3.35;1.30;;;11.00;78.50;;;;;;4959401;28;20038;-86
2021/04/15 10:37:34;;;;;;;3.13;1.40;;;11.00;77.80;;;;;;4959547;28;20080;-86
2021/04/15 10:40:09;;;;;;;2.17;1.17;;;11.00;78.00;;;;;;4946458;28;20453;-85
2021/04/15 10:43:05;;;;;;;1.83;1.20;;;11.00;78.50;;;;;;4974446;28;20425;-86
2021/04/15 10:45:56;;;;;;;2.15;1.35;;;11.00;77.20;;;;;;4960854;28;20030;-87
2021/04/15 10:48:57;;;;;;;3.42;1.48;;;11.00;76.80;;;;;;4969102;28;20026;-86
2021/04/15 10:51:50;;;;;;;6.40;1.65;;;11.00;78.30;;;;;;4960660;28;20034;-84
2021/04/15 10:54:23;;;;;;;1.90;1.20;;;11.00;79.20;;;;;;4993365;28;20057;-84
2021/04/15 10:56:57;;;;;;;2.03;1.40;;;11.10;75.50;;;;;;5002559;28;20471;-84
2021/04/15 10:59:32;;;;;;;2.55;1.40;;;11.10;76.20;;;;;;4995791;28;20045;-85
2021/04/15 11:02:16;;;;;;;3.63;1.30;;;11.10;74.90;;;;;;5008542;28;20553;-83
2021/04/15 11:04:42;;;;;;;1.92;1.10;;;11.10;73.90;;;;;;4991996;28;20022;-84
2021/04/15 11:07:37;;;;;;;2.33;1.50;;;11.10;74.40;;;;;;4973909;28;20542;-85
2021/04/15 11:10:11;;;;;;;3.58;1.52;;;11.10;73.10;;;;;;4974762;28;20057;-84
2021/04/15 11:12:37;;;;;;;3.25;1.60;;;11.10;72.70;;;;;;4988377;28;20025;-85
2021/04/15 11:15:13;;;;;;;3.95;1.40;;;11.10;73.50;;;;;;4978868;28;20027;-84
2021/04/15 11:17:42;;;;;;;3.15;1.45;;;11.10;73.30;;;;;;4993111;28;20026;-85
2021/04/15 11:20:23;;;;;;;2.72;1.60;;;11.00;72.70;;;;;;5045185;23;20055;-80
2021/04/15 11:22:51;;;;;;;3.25;1.58;;;11.00;71.60;;;;;;4954925;28;20091;-81
2021/04/15 11:25:23;;;;;;;3.70;1.52;;;11.00;70.70;;;;;;4936710;29;20043;-81
2021/04/15 11:27:51;;;;;;;3.60;1.70;;;11.00;69.80;;;;;;4944311;29;20042;-81
2021/04/15 11:30:38;;;;;;;2.58;1.50;;;11.00;70.20;;;;;;4944698;29;20027;-81
2021/04/15 11:33:06;;;;;;;2.30;1.48;;;11.10;70.10;;;;;;4944840;29;20023;-81
2021/04/15 11:35:32;;;;;;;3.30;1.60;;;11.10;69.90;;;;;;4945726;29;20034;-80
2021/04/15 11:38:21;;;;;;;2.45;1.88;;;11.10;70.60;;;;;;4943563;28;20027;-81
2021/04/15 11:40:52;;;;;;;2.60;1.70;;;11.20;69.00;;;;;;4939260;28;20132;-81
2021/04/15 11:43:23;;;;;;;3.13;1.60;;;11.20;67.90;;;;;;4938829;29;20039;-81
2021/04/15 11:45:49;;;;;;;2.95;1.83;;;11.20;69.20;;;;;;4950196;28;20384;-82
2021/04/15 11:48:28;;;;;;;4.85;2.00;;;11.20;65.40;;;;;;4928879;29;20086;-81
2021/04/15 11:51:15;;;;;;;5.05;2.13;;;11.20;67.70;;;;;;4961285;28;20035;-80
2021/04/15 11:53:57;;;;;;;3.92;2.20;;;11.20;65.40;;;;;;4945270;28;20074;-82
2021/04/15 11:56:23;;;;;;;3.65;1.95;;;11.10;66.10;;;;;;4958884;28;20504;-82
2021/04/15 11:58:50;;;;;;;5.28;2.08;;;11.20;68.30;;;;;;4938341;28;20030;-81
2021/04/15 12:01:28;;;;;;;3.00;1.70;;;11.20;68.50;;;;;;4938024;29;20152;-81
2021/04/15 12:04:01;;;;;;;4.45;1.60;;;11.30;69.20;;;;;;4938140;29;20029;-81
2021/04/15 12:06:41;;;;;;;4.00;1.70;;;11.30;67.70;;;;;;4968771;28;20019;-81
2021/04/15 12:09:13;;;;;;;3.35;1.63;;;11.30;70.30;;;;;;4938426;29;20038;-81
2021/04/15 12:12:10;;;;;;;2.58;1.60;;;11.40;68.40;;;;;;4956667;28;20546;-81
2021/04/15 12:14:37;;;;;;;2.92;1.60;;;11.50;66.30;;;;;;4940518;28;20032;-81
2021/04/15 12:17:31;;;;;;;2.92;1.63;;;11.70;66.90;;;;;;4940768;28;20046;-81
2021/04/15 12:20:22;;;;;;;3.30;1.77;;;11.80;63.70;;;;;;4953677;29;20046;-83
2021/04/15 12:23:01;;;;;;;5.30;1.75;;;11.90;63.80;;;;;;4954444;29;20098;-81
2021/04/15 12:25:33;;;;;;;2.70;1.70;;;12.10;63.20;;;;;;4926708;29;20032;-81
2021/04/15 12:28:26;;;;;;;4.63;1.83;;;12.30;62.20;;;;;;4947224;29;20027;-82
2021/04/15 12:30:59;;;;;;;3.38;1.83;;;12.40;62.20;;;;;;4924016;29;20036;-82
2021/04/15 12:34:14;;;;;;;3.38;1.60;;;12.40;62.40;;;;;;4948788;29;20114;-81
2021/04/15 12:36:58;;;;;;;4.75;1.77;;;12.50;60.10;;;;;;4945706;29;20039;-81
2021/04/15 12:39:30;;;;;;;3.20;1.67;;;12.50;58.40;;;;;;4946077;29;20024;-82
2021/04/15 12:41:56;;;;;;;3.95;1.70;;;12.60;56.70;;;;;;4940005;28;20024;-82
2021/04/15 12:44:29;;;;;;;1.98;1.40;;;12.70;56.60;;;;;;4927838;29;20023;-82
2021/04/15 12:46:58;;;;;;;3.63;2.03;;;12.70;58.60;;;;;;4940730;28;20032;-82
2021/04/15 12:49:28;;;;;;;3.80;1.70;;;12.80;56.30;;;;;;4943302;29;20461;-82
2021/04/15 12:52:00;;;;;;;3.05;1.80;;;12.80;58.90;;;;;;4926100;29;20039;-81
2021/04/15 12:54:30;;;;;;;3.75;1.83;;;12.90;59.30;;;;;;4932477;29;20032;-82
2021/04/15 12:57:02;;;;;;;4.97;1.92;;;12.90;58.30;;;;;;4935446;29;20070;-82
2021/04/15 12:59:38;;;;;;;2.97;1.90;;;13.00;57.90;;;;;;4935898;29;20019;-81
2021/04/15 13:02:09;;;;;;;3.35;1.63;;;13.00;57.20;;;;;;4933981;29;20063;-81
2021/04/15 13:04:35;;;;;;;3.00;1.60;;;13.10;58.30;;;;;;4929008;29;20078;-82
2021/04/15 13:07:00;;;;;;;2.90;1.83;;;13.30;57.90;;;;;;4937988;29;20027;-83
2021/04/15 13:09:45;;;;;;;3.92;1.98;;;13.50;57.80;;;;;;4939080;29;20031;-82
2021/04/15 13:12:33;;;;;;;3.08;1.88;;;13.70;55.20;;;;;;4930603;29;20119;-82
2021/04/15 13:15:01;;;;;;;2.42;1.52;;;13.80;51.60;;;;;;4948515;29;20032;-83
2021/04/15 13:17:36;;;;;;;2.83;1.63;;;13.80;52.40;;;;;;4932423;29;20438;-81
2021/04/15 13:20:33;;;;;;;2.85;1.70;;;13.80;50.80;;;;;;4932369;29;20058;-83
2021/04/15 13:23:30;;;;;;;3.05;1.70;;;13.70;55.00;;;;;;4943607;29;20367;-82
2021/04/15 13:25:56;;;;;;;3.03;1.67;;;13.70;57.60;;;;;;4923333;29;20378;-82
2021/04/15 13:28:38;;;;;;;3.95;2.22;;;13.80;56.50;;;;;;4934315;29;20020;-81
2021/04/15 13:31:05;;;;;;;3.85;1.95;;;13.90;55.90;;;;;;4929784;29;20434;-83
2021/04/15 13:33:31;;;;;;;4.78;1.75;;;13.90;55.50;;;;;;4931674;29;20024;-82
2021/04/15 13:36:02;;;;;;;2.63;1.75;;;13.90;55.30;;;;;;4932418;29;20032;-82
2021/04/15 13:41:08;;;;;;;3.15;1.70;;;13.80;55.40;;;;;;4943161;29;20039;-81
2021/04/15 13:43:58;;;;;;;3.70;1.85;;;13.80;56.80;;;;;;4931441;29;20023;-82
2021/04/15 13:46:33;;;;;;;2.67;1.80;;;13.80;56.20;;;;;;4943691;29;20087;-81
2021/04/15 13:49:14;;;;;;;3.95;1.73;;;13.80;56.90;;;;;;4948814;29;20050;-82
2021/04/15 13:51:48;;;;;;;3.65;1.92;;;13.80;56.30;;;;;;4937594;28;20051;-82
2021/04/15 13:54:13;;;;;;;3.38;1.92;;;13.70;51.30;;;;;;4943561;29;20027;-82
2021/04/15 13:56:46;;;;;;;3.03;1.60;;;13.60;52.60;;;;;;4943374;29;20046;-82
2021/04/15 13:59:41;;;;;;;3.72;1.83;;;13.50;54.50;;;;;;4939675;29;20457;-82